createdAt,value
2023-04-15T00:01:00.202Z,2.90
2023-04-15T00:03:28.740Z,3.22
2023-04-15T00:05:56.619Z,3.00
2023-04-15T00:08:24.847Z,2.70
2023-04-15T00:10:52.820Z,3.30
2023-04-15T00:13:21.878Z,2.85
2023-04-15T00:15:49.619Z,2.92
2023-04-15T00:18:17.401Z,3.17
2023-04-15T00:20:45.139Z,3.10
2023-04-15T00:23:12.884Z,3.63
2023-04-15T00:25:40.720Z,3.50
2023-04-15T00:28:08.657Z,3.17
2023-04-15T00:30:38.048Z,3.40
2023-04-15T00:33:05.891Z,3.65
2023-04-15T00:35:33.881Z,3.72
2023-04-15T00:38:01.598Z,3.70
2023-04-15T00:40:29.336Z,3.50
2023-04-15T00:42:57.133Z,3.40
2023-04-15T00:45:25.254Z,3.80
2023-04-15T00:47:54.849Z,4.10
2023-04-15T00:50:22.766Z,3.67
2023-04-15T00:52:50.701Z,3.70
2023-04-15T00:55:19.315Z,3.35
2023-04-15T00:57:47.562Z,2.72
2023-04-15T01:00:16.604Z,2.63
2023-04-15T01:02:44.488Z,3.10
2023-04-15T01:05:13.941Z,2.97
2023-04-15T01:07:41.689Z,3.03
2023-04-15T01:10:10.453Z,2.47
2023-04-15T01:12:39.518Z,2.90
2023-04-15T01:15:09.432Z,3.35
2023-04-15T01:17:37.437Z,2.92
2023-04-15T01:20:06.209Z,2.97
2023-04-15T01:22:35.687Z,3.05
2023-04-15T01:25:09.657Z,3.40
2023-04-15T01:27:40.977Z,3.60
2023-04-15T01:30:10.587Z,3.38
2023-04-15T01:32:38.785Z,3.95
2023-04-15T01:35:07.704Z,3.88
2023-04-15T01:37:35.941Z,3.53
2023-04-15T01:40:03.913Z,3.67
2023-04-15T01:42:31.648Z,3.60
2023-04-15T01:45:00.860Z,3.55
2023-04-15T01:47:28.718Z,4.50
2023-04-15T01:49:56.906Z,4.25
2023-04-15T01:52:24.651Z,4.75
2023-04-15T01:54:52.420Z,4.30
2023-04-15T01:57:20.100Z,4.55
2023-04-15T01:59:47.865Z,4.40
2023-04-15T02:02:17.462Z,4.25
2023-04-15T02:04:45.531Z,4.80
2023-04-15T02:07:13.347Z,5.03
2023-04-15T02:09:41.091Z,4.28
2023-04-15T02:12:09.205Z,4.88
2023-04-15T02:14:37.217Z,4.53
2023-04-15T02:17:08.515Z,4.28
2023-04-15T02:19:37.672Z,4.72
2023-04-15T02:22:05.365Z,3.60
2023-04-15T02:24:33.020Z,3.92
2023-04-15T02:27:01.085Z,3.42
2023-04-15T02:29:28.765Z,3.50
2023-04-15T02:31:56.929Z,3.25
2023-04-15T02:34:24.687Z,3.67
2023-04-15T02:36:57.101Z,3.65
2023-04-15T02:39:24.870Z,3.45
2023-04-15T02:41:52.802Z,3.70
2023-04-15T02:44:20.620Z,3.63
2023-04-15T02:46:50.803Z,3.30
2023-04-15T02:49:18.527Z,3.47
2023-04-15T02:51:48.701Z,3.30
2023-04-15T02:54:17.945Z,3.15
2023-04-15T02:56:45.745Z,3.20
2023-04-15T02:59:14.016Z,3.40
2023-04-15T03:01:41.711Z,3.35
2023-04-15T03:04:09.580Z,3.30
2023-04-15T03:06:37.411Z,3.35
2023-04-15T03:09:05.561Z,3.30
2023-04-15T03:11:36.434Z,3.15
2023-04-15T03:14:04.207Z,2.83
2023-04-15T03:16:31.931Z,3.30
2023-04-15T03:18:59.833Z,3.47
2023-04-15T03:21:27.775Z,3.05
2023-04-15T03:23:56.297Z,3.15
2023-04-15T03:26:28.899Z,3.10
2023-04-15T03:28:58.466Z,3.20
2023-04-15T03:31:26.559Z,3.17
2023-04-15T03:33:54.342Z,3.05
2023-04-15T03:36:22.142Z,3.22
2023-04-15T03:38:50.403Z,3.28
2023-04-15T03:41:18.170Z,2.97
2023-04-15T03:43:45.817Z,2.92
2023-04-15T03:46:14.879Z,2.80
2023-04-15T03:48:42.551Z,2.90
2023-04-15T03:51:10.213Z,3.33
2023-04-15T03:53:37.947Z,2.63
2023-04-15T03:56:06.535Z,3.00
2023-04-15T03:58:34.191Z,2.83
2023-04-15T04:01:02.086Z,2.42
2023-04-15T04:03:31.817Z,2.60
2023-04-15T04:05:59.577Z,2.80
2023-04-15T04:08:27.595Z,2.90
2023-04-15T04:10:55.336Z,3.33
2023-04-15T04:13:23.024Z,2.90
2023-04-15T04:15:50.756Z,2.85
2023-04-15T04:18:18.509Z,2.78
2023-04-15T04:20:47.888Z,2.90
2023-04-15T04:23:15.627Z,2.70
2023-04-15T04:25:43.648Z,2.83
2023-04-15T04:28:11.611Z,2.80
2023-04-15T04:30:39.384Z,3.03
2023-04-15T04:33:07.892Z,3.35
2023-04-15T04:35:37.670Z,3.40
2023-04-15T04:38:06.768Z,3.03
2023-04-15T04:40:34.638Z,3.17
2023-04-15T04:43:02.360Z,2.83
2023-04-15T04:45:30.116Z,2.92
2023-04-15T04:47:57.913Z,3.33
2023-04-15T04:50:25.650Z,2.67
2023-04-15T04:52:53.487Z,3.15
2023-04-15T04:55:22.586Z,3.28
2023-04-15T04:57:50.658Z,2.83
2023-04-15T05:00:19.204Z,2.75
2023-04-15T05:02:47.331Z,3.10
2023-04-15T05:05:15.083Z,2.90
2023-04-15T05:07:42.852Z,3.10
2023-04-15T05:10:11.469Z,3.70
2023-04-15T05:12:40.525Z,2.78
2023-04-15T05:15:09.653Z,3.00
2023-04-15T05:17:37.397Z,2.92
2023-04-15T05:20:05.715Z,3.33
2023-04-15T05:22:33.419Z,3.08
2023-04-15T05:25:01.117Z,3.10
2023-04-15T05:27:28.896Z,2.85
2023-04-15T05:29:57.916Z,3.00
2023-04-15T05:32:25.657Z,2.90
2023-04-15T05:34:53.351Z,3.50
2023-04-15T05:37:22.306Z,3.10
2023-04-15T05:39:50.055Z,2.90
2023-04-15T05:42:17.775Z,3.10
2023-04-15T05:44:45.781Z,3.17
2023-04-15T05:47:14.853Z,3.08
2023-04-15T05:49:42.463Z,3.00
2023-04-15T05:52:10.323Z,3.10
2023-04-15T05:54:38.933Z,3.03
2023-04-15T05:57:07.906Z,2.92
2023-04-15T05:59:35.536Z,3.00
2023-04-15T06:02:03.598Z,3.00
2023-04-15T06:04:32.981Z,3.90
2023-04-15T06:07:00.785Z,7.57
2023-04-15T06:09:28.952Z,3.67
2023-04-15T06:11:57.142Z,3.75
2023-04-15T06:14:24.987Z,3.75
2023-04-15T06:16:52.726Z,3.53
2023-04-15T06:19:20.568Z,3.88
2023-04-15T06:21:49.988Z,3.95
2023-04-15T06:24:18.022Z,4.40
2023-04-15T06:26:45.838Z,4.35
2023-04-15T06:29:13.662Z,4.07
2023-04-15T06:31:41.508Z,4.88
2023-04-15T06:34:09.373Z,4.95
2023-04-15T06:36:37.073Z,4.57
2023-04-15T06:39:06.234Z,4.30
2023-04-15T06:41:34.274Z,4.50
2023-04-15T06:44:02.213Z,4.50
2023-04-15T06:46:29.943Z,4.70
2023-04-15T06:48:57.573Z,4.45
2023-04-15T06:51:26.742Z,4.57
2023-04-15T06:53:54.666Z,4.40
2023-04-15T06:56:23.786Z,4.97
2023-04-15T06:58:51.679Z,5.40
2023-04-15T07:01:19.492Z,5.07
2023-04-15T07:03:47.322Z,4.57
2023-04-15T07:06:15.104Z,4.57
2023-04-15T07:08:42.853Z,4.68
2023-04-15T07:11:10.601Z,4.95
2023-04-15T07:13:39.699Z,4.72
2023-04-15T07:16:07.576Z,4.43
2023-04-15T07:18:36.386Z,4.78
2023-04-15T07:21:04.344Z,4.82
2023-04-15T07:23:32.192Z,4.90
2023-04-15T07:26:01.060Z,4.88
2023-04-15T07:28:28.793Z,5.25
2023-04-15T07:30:58.184Z,5.30
2023-04-15T07:33:25.927Z,5.22
2023-04-15T07:35:53.742Z,5.03
2023-04-15T07:38:21.578Z,5.03
2023-04-15T07:40:49.632Z,5.65
2023-04-15T07:43:17.552Z,4.97
2023-04-15T07:45:45.217Z,4.70
2023-04-15T07:48:14.273Z,5.40
2023-04-15T07:50:41.993Z,5.20
2023-04-15T07:53:09.747Z,6.00
2023-04-15T07:55:37.438Z,5.03
2023-04-15T07:58:05.085Z,5.60
2023-04-15T08:00:33.547Z,7.53
2023-04-15T08:03:01.333Z,5.57
2023-04-15T08:05:30.534Z,5.43
2023-04-15T08:07:58.683Z,5.15
2023-04-15T08:10:26.483Z,5.78
2023-04-15T08:12:54.707Z,5.70
2023-04-15T08:15:22.554Z,5.55
2023-04-15T08:17:50.556Z,6.05
2023-04-15T08:20:18.939Z,5.38
2023-04-15T08:22:51.940Z,5.88
2023-04-15T08:25:20.051Z,5.63
2023-04-15T08:27:47.863Z,5.88
2023-04-15T08:30:15.682Z,5.70
2023-04-15T08:32:44.016Z,5.20
2023-04-15T08:35:11.749Z,5.50
2023-04-15T08:37:39.420Z,4.82
2023-04-15T08:40:10.488Z,5.07
2023-04-15T08:42:44.930Z,5.18
2023-04-15T08:45:13.223Z,5.63
2023-04-15T08:47:42.332Z,5.70
2023-04-15T08:50:11.759Z,5.20
2023-04-15T08:52:40.715Z,5.10
2023-04-15T08:55:11.585Z,6.22
2023-04-15T08:57:39.900Z,5.70
2023-04-15T09:00:09.513Z,5.40
2023-04-15T09:02:37.495Z,6.05
2023-04-15T09:05:07.590Z,6.00
2023-04-15T09:07:35.865Z,5.55
2023-04-15T09:10:04.584Z,5.47
2023-04-15T09:12:36.007Z,5.47
2023-04-15T09:15:03.784Z,5.45
2023-04-15T09:17:34.462Z,5.53
2023-04-15T09:20:09.840Z,5.38
2023-04-15T09:22:38.179Z,5.28
2023-04-15T09:25:26.554Z,4.95
2023-04-15T09:27:57.501Z,5.13
2023-04-15T09:30:25.276Z,5.63
2023-04-15T09:32:54.264Z,5.60
2023-04-15T09:35:22.710Z,5.70
2023-04-15T09:37:50.775Z,6.35
2023-04-15T09:40:32.599Z,5.22
2023-04-15T09:43:02.799Z,5.90
2023-04-15T09:45:31.056Z,5.82
2023-04-15T09:47:59.912Z,5.90
2023-04-15T09:50:30.673Z,5.82
2023-04-15T09:52:59.646Z,6.40
2023-04-15T09:55:27.372Z,6.80
2023-04-15T09:57:55.167Z,6.95
2023-04-15T10:00:24.279Z,6.38
2023-04-15T10:02:53.147Z,7.00
2023-04-15T10:05:22.006Z,5.93
2023-04-15T10:07:50.738Z,6.03
2023-04-15T10:10:19.198Z,6.03
2023-04-15T10:12:47.799Z,6.28
2023-04-15T10:15:17.923Z,6.68
2023-04-15T10:17:49.173Z,6.03
2023-04-15T10:20:20.606Z,7.40
2023-04-15T10:22:48.729Z,5.90
2023-04-15T10:25:17.014Z,5.45
2023-04-15T10:27:44.981Z,5.47
2023-04-15T10:30:13.862Z,5.22
2023-04-15T10:32:42.584Z,5.13
2023-04-15T10:35:12.735Z,5.15
2023-04-15T10:37:40.421Z,4.47
2023-04-15T10:40:28.820Z,4.30
2023-04-15T10:42:57.465Z,4.03
2023-04-15T10:45:28.044Z,4.50
2023-04-15T10:48:00.470Z,4.20
2023-04-15T10:50:32.779Z,4.25
2023-04-15T10:53:03.393Z,3.47
2023-04-15T10:55:34.189Z,3.80
2023-04-15T10:58:02.997Z,3.97
2023-04-15T11:00:32.453Z,4.13
2023-04-15T11:03:06.310Z,3.75
2023-04-15T11:05:53.667Z,4.03
2023-04-15T11:08:22.091Z,4.00
2023-04-15T11:10:54.875Z,3.75
2023-04-15T11:13:29.436Z,4.32
2023-04-15T11:16:02.118Z,3.80
2023-04-15T11:18:32.994Z,4.10
2023-04-15T11:21:04.469Z,3.63
2023-04-15T11:23:39.311Z,3.78
2023-04-15T11:26:11.671Z,3.80
2023-04-15T11:28:41.384Z,3.50
2023-04-15T11:31:11.843Z,4.28
2023-04-15T11:33:46.436Z,3.80
2023-04-15T11:36:15.744Z,3.90
2023-04-15T11:38:48.524Z,4.10
2023-04-15T11:41:17.070Z,4.57
2023-04-15T11:43:44.791Z,4.10
2023-04-15T11:46:12.510Z,4.40
2023-04-15T11:48:43.861Z,3.90
2023-04-15T11:51:12.824Z,3.97
2023-04-15T11:53:43.860Z,4.00
2023-04-15T11:56:13.302Z,3.97
2023-04-15T11:58:40.997Z,3.90
2023-04-15T12:01:08.856Z,3.63
2023-04-15T12:03:41.562Z,3.70
2023-04-15T12:06:16.482Z,3.50
2023-04-15T12:09:00.545Z,3.30
2023-04-15T12:11:36.932Z,3.70
2023-04-15T12:14:07.620Z,3.53
2023-04-15T12:16:47.862Z,2.90
2023-04-15T12:19:19.092Z,2.83
2023-04-15T12:21:48.702Z,3.05
2023-04-15T12:24:22.065Z,2.97
2023-04-15T12:26:52.475Z,3.20
2023-04-15T12:29:22.144Z,3.00
2023-04-15T12:31:52.181Z,2.60
2023-04-15T12:34:26.844Z,2.58
2023-04-15T12:36:55.044Z,2.38
2023-04-15T12:39:25.395Z,2.30
2023-04-15T12:41:53.529Z,2.90
2023-04-15T12:44:23.935Z,2.80
2023-04-15T12:46:52.860Z,1.70
2023-04-15T12:49:21.418Z,1.70
2023-04-15T12:51:50.339Z,1.80
2023-04-15T12:54:18.490Z,1.40
2023-04-15T12:56:49.147Z,1.30
2023-04-15T12:59:18.598Z,1.77
2023-04-15T13:01:47.370Z,1.70
2023-04-15T13:04:15.658Z,1.50
2023-04-15T13:06:43.999Z,1.70
2023-04-15T13:09:11.753Z,1.60
2023-04-15T13:11:39.644Z,1.70
2023-04-15T13:14:11.398Z,1.60
2023-04-15T13:16:39.085Z,1.40
2023-04-15T13:19:06.803Z,1.50
2023-04-15T13:21:35.930Z,1.60
2023-04-15T13:24:07.196Z,1.40
2023-04-15T13:26:35.231Z,1.50
2023-04-15T13:29:03.027Z,1.30
2023-04-15T13:31:32.267Z,1.40
2023-04-15T13:34:00.308Z,1.60
2023-04-15T13:36:28.268Z,1.60
2023-04-15T13:38:56.763Z,1.25
2023-04-15T13:41:24.443Z,1.10
2023-04-15T13:43:52.276Z,1.00
2023-04-15T13:46:19.988Z,1.20
2023-04-15T13:48:49.045Z,1.40
2023-04-15T13:51:16.640Z,1.10
2023-04-15T13:53:44.366Z,1.10
2023-04-15T13:56:12.293Z,1.10
2023-04-15T13:58:42.312Z,0.80
2023-04-15T14:01:10.066Z,0.90
2023-04-15T14:03:38.175Z,0.82
2023-04-15T14:06:07.882Z,1.00
2023-04-15T14:08:35.578Z,0.80
2023-04-15T14:11:03.289Z,1.00
2023-04-15T14:13:31.338Z,0.80
2023-04-15T14:15:59.039Z,1.08
2023-04-15T14:18:26.984Z,1.10
2023-04-15T14:20:55.100Z,1.15
2023-04-15T14:23:24.374Z,1.02
2023-04-15T14:25:52.478Z,1.05
2023-04-15T14:28:20.318Z,1.00
2023-04-15T14:30:48.008Z,1.00
2023-04-15T14:33:16.295Z,0.90
2023-04-15T14:35:43.920Z,1.42
2023-04-15T14:38:11.749Z,1.45
2023-04-15T14:40:42.273Z,1.50
2023-04-15T14:43:10.034Z,1.60
2023-04-15T14:45:41.824Z,2.00
2023-04-15T14:48:13.421Z,2.67
2023-04-15T14:50:41.372Z,1.90
2023-04-15T14:53:09.166Z,1.85
2023-04-15T14:55:36.802Z,1.90
2023-04-15T14:58:06.088Z,2.00
2023-04-15T15:00:33.855Z,2.00
2023-04-15T15:03:01.831Z,2.05
2023-04-15T15:05:29.789Z,2.15
2023-04-15T15:07:57.544Z,2.00
2023-04-15T15:10:33.195Z,2.47
2023-04-15T15:13:14.545Z,2.50
2023-04-15T15:15:42.417Z,1.90
2023-04-15T15:18:10.245Z,2.20
2023-04-15T15:20:38.351Z,2.10
2023-04-15T15:23:06.098Z,2.00
2023-04-15T15:25:33.714Z,2.13
2023-04-15T15:28:01.301Z,1.92
2023-04-15T15:30:30.589Z,2.15
2023-04-15T15:32:58.280Z,2.00
2023-04-15T15:35:26.946Z,1.98
2023-04-15T15:37:54.977Z,2.50
2023-04-15T15:40:22.904Z,2.47
2023-04-15T15:42:51.057Z,2.17
2023-04-15T15:45:18.883Z,2.38
2023-04-15T15:47:48.488Z,2.38
2023-04-15T15:50:16.222Z,2.15
2023-04-15T15:52:44.167Z,1.92
2023-04-15T15:55:11.858Z,1.85
2023-04-15T15:57:39.490Z,2.38
2023-04-15T16:00:12.082Z,1.90
2023-04-15T16:03:05.177Z,2.00
2023-04-15T16:05:29.759Z,2.22
2023-04-15T16:07:57.451Z,2.20
2023-04-15T16:10:25.312Z,2.03
2023-04-15T16:12:53.079Z,2.65
2023-04-15T16:15:21.114Z,2.20
2023-04-15T16:17:48.858Z,2.30
2023-04-15T16:20:16.753Z,2.00
2023-04-15T16:22:45.909Z,2.00
2023-04-15T16:25:13.650Z,2.10
2023-04-15T16:27:57.170Z,2.10
2023-04-15T16:30:28.978Z,2.20
2023-04-15T16:32:57.308Z,2.42
2023-04-15T16:35:25.092Z,2.50
2023-04-15T16:37:54.243Z,2.90
2023-04-15T16:40:21.953Z,2.58
2023-04-15T16:42:50.645Z,2.70
2023-04-15T16:45:18.419Z,3.00
2023-04-15T16:47:46.194Z,3.10
2023-04-15T16:50:13.981Z,3.00
2023-04-15T16:52:41.720Z,3.00
2023-04-15T16:55:11.237Z,2.80
2023-04-15T16:58:01.186Z,3.00
2023-04-15T17:00:27.190Z,3.05
2023-04-15T17:02:56.208Z,3.10
2023-04-15T17:05:24.039Z,3.28
2023-04-15T17:07:52.468Z,3.63
2023-04-15T17:10:21.630Z,3.25
2023-04-15T17:12:51.822Z,3.10
2023-04-15T17:15:19.925Z,3.17
2023-04-15T17:17:47.967Z,3.38
2023-04-15T17:20:17.393Z,2.90
2023-04-15T17:22:45.235Z,2.60
2023-04-15T17:25:14.476Z,3.00
2023-04-15T17:27:43.570Z,2.72
2023-04-15T17:30:11.777Z,2.70
2023-04-15T17:32:40.253Z,2.40
2023-04-15T17:35:09.024Z,2.50
2023-04-15T17:37:36.850Z,2.50
2023-04-15T17:40:06.629Z,2.28
2023-04-15T17:42:36.252Z,2.10
2023-04-15T17:45:06.182Z,2.20
2023-04-15T17:47:34.017Z,2.33
2023-04-15T17:50:01.743Z,2.70
2023-04-15T17:52:29.410Z,2.90
2023-04-15T17:54:57.093Z,3.25
2023-04-15T17:57:25.201Z,2.95
2023-04-15T17:59:52.910Z,2.83
2023-04-15T18:02:22.156Z,3.47
2023-04-15T18:04:50.380Z,2.83
2023-04-15T18:07:18.273Z,3.30
2023-04-15T18:09:46.233Z,3.25
2023-04-15T18:12:13.894Z,3.30
2023-04-15T18:14:41.515Z,3.35
2023-04-15T18:17:09.457Z,3.30
2023-04-15T18:19:38.506Z,3.42
2023-04-15T18:22:06.267Z,3.30
2023-04-15T18:24:33.952Z,3.40
2023-04-15T18:27:01.776Z,3.42
2023-04-15T18:29:31.118Z,3.55
2023-04-15T18:32:00.074Z,3.88
2023-04-15T18:34:28.069Z,3.83
2023-04-15T18:36:59.930Z,4.00
2023-04-15T18:39:27.728Z,4.30
2023-04-15T18:41:56.450Z,4.05
2023-04-15T18:44:24.667Z,4.30
2023-04-15T18:46:52.571Z,4.32
2023-04-15T18:49:20.274Z,4.38
2023-04-15T18:51:47.986Z,4.40
2023-04-15T18:54:17.207Z,4.70
2023-04-15T18:56:45.121Z,4.78
2023-04-15T18:59:28.876Z,4.75
2023-04-15T19:01:58.999Z,5.13
2023-04-15T19:04:28.885Z,5.20
2023-04-15T19:06:57.070Z,5.05
2023-04-15T19:09:26.328Z,5.40
2023-04-15T19:11:53.985Z,5.13
2023-04-15T19:14:21.795Z,5.47
2023-04-15T19:16:49.545Z,5.20
2023-04-15T19:19:17.283Z,5.80
2023-04-15T19:21:45.822Z,5.50
2023-04-15T19:24:13.621Z,5.55
2023-04-15T19:26:42.822Z,5.68
2023-04-15T19:29:11.662Z,5.63
2023-04-15T19:31:39.575Z,6.05
2023-04-15T19:34:07.428Z,5.68
2023-04-15T19:36:35.339Z,5.90
2023-04-15T19:39:03.172Z,5.47
2023-04-15T19:41:31.355Z,6.05
2023-04-15T19:44:00.925Z,6.30
2023-04-15T19:46:28.695Z,5.65
2023-04-15T19:48:56.634Z,6.03
2023-04-15T19:51:24.421Z,6.22
2023-04-15T19:53:53.997Z,5.68
2023-04-15T19:56:23.872Z,5.97
2023-04-15T19:58:53.003Z,5.97
2023-04-15T20:01:22.865Z,6.28
2023-04-15T20:03:50.701Z,6.15
2023-04-15T20:06:18.657Z,6.22
2023-04-15T20:08:46.609Z,6.03
2023-04-15T20:11:15.026Z,6.45
2023-04-15T20:13:43.047Z,5.90
2023-04-15T20:16:11.802Z,5.82
2023-04-15T20:18:41.345Z,6.13
2023-04-15T20:21:09.077Z,5.85
2023-04-15T20:23:38.414Z,5.97
2023-04-15T20:26:06.453Z,5.70
2023-04-15T20:28:34.454Z,5.57
2023-04-15T20:31:02.830Z,5.90
2023-04-15T20:33:30.621Z,5.60
2023-04-15T20:35:59.986Z,5.40
2023-04-15T20:38:27.738Z,5.65
2023-04-15T20:40:55.730Z,5.32
2023-04-15T20:43:23.769Z,5.57
2023-04-15T20:45:53.894Z,5.40
2023-04-15T20:48:22.772Z,5.75
2023-04-15T20:50:50.761Z,5.35
2023-04-15T20:53:19.911Z,4.95
2023-04-15T20:55:47.717Z,5.10
2023-04-15T20:58:15.462Z,5.05
2023-04-15T21:00:43.367Z,5.18
2023-04-15T21:03:11.946Z,5.13
2023-04-15T21:05:39.909Z,5.10
2023-04-15T21:08:08.207Z,4.93
2023-04-15T21:10:37.336Z,5.10
2023-04-15T21:13:06.439Z,5.38
2023-04-15T21:15:34.404Z,5.32
2023-04-15T21:18:02.194Z,5.45
2023-04-15T21:20:30.063Z,5.72
2023-04-15T21:22:57.732Z,5.43
2023-04-15T21:25:25.557Z,5.22
2023-04-15T21:27:54.645Z,5.30
2023-04-15T21:30:23.736Z,5.40
2023-04-15T21:32:51.589Z,5.63
2023-04-15T21:35:19.401Z,5.63
2023-04-15T21:37:47.234Z,5.50
2023-04-15T21:40:16.340Z,5.10
2023-04-15T21:42:44.039Z,5.53
2023-04-15T21:45:13.606Z,5.53
2023-04-15T21:48:00.438Z,5.22
2023-04-15T21:50:29.303Z,5.38
2023-04-15T21:52:56.992Z,5.45
2023-04-15T21:55:24.833Z,5.55
2023-04-15T21:57:52.636Z,5.13
2023-04-15T22:00:23.121Z,5.35
2023-04-15T22:02:50.975Z,5.45
2023-04-15T22:05:19.142Z,4.95
2023-04-15T22:07:47.025Z,4.95
2023-04-15T22:10:14.805Z,5.43
2023-04-15T22:12:42.720Z,5.30
2023-04-15T22:15:11.055Z,4.65
2023-04-15T22:17:40.171Z,5.13
2023-04-15T22:20:09.498Z,5.50
2023-04-15T22:22:43.223Z,5.13
2023-04-15T22:25:12.691Z,5.28
2023-04-15T22:27:40.477Z,5.72
2023-04-15T22:30:09.618Z,5.75
2023-04-15T22:32:37.977Z,6.00
2023-04-15T22:35:07.775Z,5.53
2023-04-15T22:37:35.672Z,5.88
2023-04-15T22:40:03.453Z,6.30
2023-04-15T22:42:31.145Z,6.07
2023-04-15T22:44:58.832Z,5.95
2023-04-15T22:47:27.112Z,6.00
2023-04-15T22:49:54.910Z,6.00
2023-04-15T22:52:30.755Z,5.85
2023-04-15T22:54:59.300Z,6.32
2023-04-15T22:57:27.842Z,6.40
2023-04-15T22:59:55.578Z,6.90
2023-04-15T23:02:23.514Z,6.95
2023-04-15T23:04:51.374Z,7.00
2023-04-15T23:07:19.142Z,7.57
2023-04-15T23:09:48.240Z,7.38
2023-04-15T23:12:15.982Z,8.38
2023-04-15T23:14:43.698Z,7.88
2023-04-15T23:17:12.230Z,8.38
2023-04-15T23:19:39.885Z,8.73
2023-04-15T23:22:10.451Z,9.10
2023-04-15T23:24:38.194Z,8.68
2023-04-15T23:27:07.246Z,8.95
2023-04-15T23:29:34.925Z,9.25
2023-04-15T23:32:02.724Z,8.77
2023-04-15T23:34:30.527Z,9.10
2023-04-15T23:36:58.193Z,9.52
2023-04-15T23:39:25.891Z,9.40
2023-04-15T23:41:53.832Z,9.98
2023-04-15T23:44:22.838Z,9.45
2023-04-15T23:46:51.260Z,9.50
2023-04-15T23:49:20.347Z,10.30
2023-04-15T23:51:48.444Z,9.55
2023-04-15T23:54:16.228Z,9.43
2023-04-15T23:56:43.954Z,9.43
2023-04-15T23:59:11.830Z,9.80
